sensor_id;sensor_type;location;lat;lon;timestamp;P1;durP1;ratioP1;P2;durP2;ratioP2
36725;SDS011;44936;52.086;5.150;2022-12-26T00:00:58;9.93;;;3.08;;
36725;SDS011;44936;52.086;5.150;2022-12-26T00:03:25;11.55;;;3.28;;
36725;SDS011;44936;52.086;5.150;2022-12-26T00:05:56;11.52;;;3.60;;
36725;SDS011;44936;52.086;5.150;2022-12-26T00:08:23;11.27;;;3.60;;
36725;SDS011;44936;52.086;5.150;2022-12-26T00:10:48;8.07;;;3.00;;
36725;SDS011;44936;52.086;5.150;2022-12-26T00:13:19;11.13;;;3.33;;
36725;SDS011;44936;52.086;5.150;2022-12-26T00:15:45;10.77;;;3.10;;
36725;SDS011;44936;52.086;5.150;2022-12-26T00:18:11;9.25;;;3.22;;
36725;SDS011;44936;52.086;5.150;2022-12-26T00:20:36;9.68;;;3.00;;
36725;SDS011;44936;52.086;5.150;2022-12-26T00:23:02;12.45;;;3.80;;
36725;SDS011;44936;52.086;5.150;2022-12-26T00:25:27;10.90;;;3.88;;
36725;SDS011;44936;52.086;5.150;2022-12-26T00:27:54;11.93;;;4.00;;
36725;SDS011;44936;52.086;5.150;2022-12-26T00:30:21;10.60;;;3.35;;
36725;SDS011;44936;52.086;5.150;2022-12-26T00:32:47;12.82;;;4.03;;
36725;SDS011;44936;52.086;5.150;2022-12-26T00:35:12;13.70;;;3.67;;
36725;SDS011;44936;52.086;5.150;2022-12-26T00:37:40;12.23;;;3.55;;
36725;SDS011;44936;52.086;5.150;2022-12-26T00:40:06;13.98;;;3.83;;
36725;SDS011;44936;52.086;5.150;2022-12-26T00:42:32;13.65;;;3.78;;
36725;SDS011;44936;52.086;5.150;2022-12-26T00:44:57;12.30;;;3.78;;
36725;SDS011;44936;52.086;5.150;2022-12-26T00:47:23;9.45;;;3.47;;
36725;SDS011;44936;52.086;5.150;2022-12-26T00:49:48;11.73;;;3.70;;
36725;SDS011;44936;52.086;5.150;2022-12-26T00:52:14;11.77;;;3.58;;
36725;SDS011;44936;52.086;5.150;2022-12-26T00:54:42;11.50;;;3.63;;
36725;SDS011;44936;52.086;5.150;2022-12-26T00:57:10;11.13;;;4.03;;
36725;SDS011;44936;52.086;5.150;2022-12-26T01:00:06;10.95;;;3.45;;
36725;SDS011;44936;52.086;5.150;2022-12-26T01:02:35;10.60;;;4.00;;
36725;SDS011;44936;52.086;5.150;2022-12-26T01:05:09;10.63;;;3.50;;
36725;SDS011;44936;52.086;5.150;2022-12-26T01:07:48;14.40;;;4.05;;
36725;SDS011;44936;52.086;5.150;2022-12-26T01:10:17;16.58;;;4.90;;
36725;SDS011;44936;52.086;5.150;2022-12-26T01:12:53;13.05;;;4.13;;
36725;SDS011;44936;52.086;5.150;2022-12-26T01:34:17;13.13;;;4.55;;
36725;SDS011;44936;52.086;5.150;2022-12-26T01:36:46;13.80;;;4.35;;
36725;SDS011;44936;52.086;5.150;2022-12-26T01:39:18;16.63;;;4.93;;
36725;SDS011;44936;52.086;5.150;2022-12-26T01:41:47;17.58;;;5.30;;
36725;SDS011;44936;52.086;5.150;2022-12-26T01:47:39;18.83;;;4.82;;
36725;SDS011;44936;52.086;5.150;2022-12-26T01:50:55;14.95;;;5.45;;
36725;SDS011;44936;52.086;5.150;2022-12-26T01:53:16;12.40;;;4.78;;
36725;SDS011;44936;52.086;5.150;2022-12-26T01:55:54;15.43;;;4.55;;
36725;SDS011;44936;52.086;5.150;2022-12-26T01:58:30;12.90;;;4.57;;
36725;SDS011;44936;52.086;5.150;2022-12-26T02:01:19;16.10;;;4.60;;
36725;SDS011;44936;52.086;5.150;2022-12-26T02:03:48;15.65;;;5.07;;
36725;SDS011;44936;52.086;5.150;2022-12-26T02:06:32;12.30;;;4.10;;
36725;SDS011;44936;52.086;5.150;2022-12-26T02:09:01;15.20;;;5.15;;
36725;SDS011;44936;52.086;5.150;2022-12-26T02:11:41;15.88;;;5.15;;
36725;SDS011;44936;52.086;5.150;2022-12-26T02:14:11;13.10;;;5.63;;
36725;SDS011;44936;52.086;5.150;2022-12-26T02:16:43;15.23;;;5.00;;
36725;SDS011;44936;52.086;5.150;2022-12-26T02:20:00;13.32;;;4.40;;
36725;SDS011;44936;52.086;5.150;2022-12-26T02:22:09;11.98;;;4.32;;
36725;SDS011;44936;52.086;5.150;2022-12-26T02:25:16;13.05;;;4.75;;
36725;SDS011;44936;52.086;5.150;2022-12-26T02:34:05;12.65;;;4.63;;
36725;SDS011;44936;52.086;5.150;2022-12-26T02:37:06;12.70;;;4.13;;
36725;SDS011;44936;52.086;5.150;2022-12-26T02:42:56;11.13;;;4.65;;
36725;SDS011;44936;52.086;5.150;2022-12-26T02:49:20;10.57;;;4.07;;
36725;SDS011;44936;52.086;5.150;2022-12-26T02:52:17;12.32;;;3.97;;
36725;SDS011;44936;52.086;5.150;2022-12-26T02:55:18;11.63;;;3.88;;
36725;SDS011;44936;52.086;5.150;2022-12-26T02:58:19;12.10;;;4.25;;
36725;SDS011;44936;52.086;5.150;2022-12-26T03:01:09;11.00;;;3.78;;
36725;SDS011;44936;52.086;5.150;2022-12-26T03:04:09;14.95;;;5.55;;
36725;SDS011;44936;52.086;5.150;2022-12-26T03:06:58;11.18;;;4.38;;
36725;SDS011;44936;52.086;5.150;2022-12-26T03:09:44;13.80;;;4.60;;
36725;SDS011;44936;52.086;5.150;2022-12-26T03:15:28;12.60;;;4.90;;
36725;SDS011;44936;52.086;5.150;2022-12-26T03:18:18;14.45;;;5.15;;
36725;SDS011;44936;52.086;5.150;2022-12-26T03:20:46;14.57;;;5.25;;
36725;SDS011;44936;52.086;5.150;2022-12-26T03:23:14;15.90;;;5.40;;
36725;SDS011;44936;52.086;5.150;2022-12-26T03:25:44;12.18;;;4.55;;
36725;SDS011;44936;52.086;5.150;2022-12-26T03:28:35;14.90;;;5.47;;
36725;SDS011;44936;52.086;5.150;2022-12-26T03:31:01;10.90;;;4.60;;
36725;SDS011;44936;52.086;5.150;2022-12-26T03:33:33;10.98;;;4.25;;
36725;SDS011;44936;52.086;5.150;2022-12-26T03:49:15;13.23;;;5.03;;
36725;SDS011;44936;52.086;5.150;2022-12-26T03:52:08;14.05;;;4.50;;
36725;SDS011;44936;52.086;5.150;2022-12-26T03:55:14;13.07;;;3.95;;
36725;SDS011;44936;52.086;5.150;2022-12-26T03:58:08;11.13;;;4.72;;
36725;SDS011;44936;52.086;5.150;2022-12-26T04:01:19;10.38;;;3.85;;
36725;SDS011;44936;52.086;5.150;2022-12-26T04:04:08;11.40;;;4.15;;
36725;SDS011;44936;52.086;5.150;2022-12-26T04:07:37;12.88;;;4.05;;
36725;SDS011;44936;52.086;5.150;2022-12-26T04:10:13;10.98;;;3.97;;
36725;SDS011;44936;52.086;5.150;2022-12-26T04:13:02;11.20;;;4.10;;
36725;SDS011;44936;52.086;5.150;2022-12-26T04:15:55;13.55;;;4.45;;
36725;SDS011;44936;52.086;5.150;2022-12-26T04:18:51;10.15;;;4.68;;
36725;SDS011;44936;52.086;5.150;2022-12-26T04:21:50;11.30;;;3.75;;
36725;SDS011;44936;52.086;5.150;2022-12-26T04:24:56;11.85;;;4.00;;
36725;SDS011;44936;52.086;5.150;2022-12-26T04:27:49;9.88;;;3.97;;
36725;SDS011;44936;52.086;5.150;2022-12-26T04:30:33;10.45;;;3.65;;
36725;SDS011;44936;52.086;5.150;2022-12-26T04:33:27;11.68;;;3.50;;
36725;SDS011;44936;52.086;5.150;2022-12-26T04:36:28;8.63;;;3.58;;
36725;SDS011;44936;52.086;5.150;2022-12-26T04:39:24;7.60;;;3.42;;
36725;SDS011;44936;52.086;5.150;2022-12-26T04:42:12;8.23;;;3.67;;
36725;SDS011;44936;52.086;5.150;2022-12-26T04:44:57;10.85;;;4.03;;
36725;SDS011;44936;52.086;5.150;2022-12-26T04:47:26;9.15;;;3.50;;
36725;SDS011;44936;52.086;5.150;2022-12-26T04:49:57;8.27;;;2.97;;
36725;SDS011;44936;52.086;5.150;2022-12-26T04:52:39;8.02;;;3.00;;
36725;SDS011;44936;52.086;5.150;2022-12-26T04:55:25;8.32;;;2.60;;
36725;SDS011;44936;52.086;5.150;2022-12-26T04:57:52;7.65;;;3.00;;
36725;SDS011;44936;52.086;5.150;2022-12-26T05:00:19;7.97;;;2.90;;
36725;SDS011;44936;52.086;5.150;2022-12-26T05:02:48;7.13;;;2.83;;
36725;SDS011;44936;52.086;5.150;2022-12-26T05:05:33;7.78;;;2.78;;
36725;SDS011;44936;52.086;5.150;2022-12-26T05:08:23;9.02;;;3.47;;
36725;SDS011;44936;52.086;5.150;2022-12-26T05:11:24;6.43;;;2.85;;
36725;SDS011;44936;52.086;5.150;2022-12-26T05:13:54;13.18;;;3.28;;
36725;SDS011;44936;52.086;5.150;2022-12-26T05:16:25;7.70;;;3.03;;
36725;SDS011;44936;52.086;5.150;2022-12-26T05:19:11;12.05;;;3.40;;
36725;SDS011;44936;52.086;5.150;2022-12-26T05:21:56;8.27;;;2.80;;
36725;SDS011;44936;52.086;5.150;2022-12-26T05:24:41;10.80;;;3.30;;
36725;SDS011;44936;52.086;5.150;2022-12-26T05:27:29;8.07;;;3.05;;
36725;SDS011;44936;52.086;5.150;2022-12-26T05:30:29;6.45;;;2.70;;
36725;SDS011;44936;52.086;5.150;2022-12-26T05:32:54;10.07;;;3.20;;
36725;SDS011;44936;52.086;5.150;2022-12-26T05:35:39;8.10;;;3.33;;
36725;SDS011;44936;52.086;5.150;2022-12-26T05:38:05;12.23;;;2.83;;
36725;SDS011;44936;52.086;5.150;2022-12-26T05:40:32;6.70;;;2.50;;
36725;SDS011;44936;52.086;5.150;2022-12-26T05:42:57;5.53;;;2.40;;
36725;SDS011;44936;52.086;5.150;2022-12-26T05:45:23;7.95;;;2.38;;
36725;SDS011;44936;52.086;5.150;2022-12-26T05:47:49;6.10;;;2.58;;
36725;SDS011;44936;52.086;5.150;2022-12-26T05:50:21;7.05;;;2.60;;
36725;SDS011;44936;52.086;5.150;2022-12-26T05:52:46;5.38;;;2.15;;
36725;SDS011;44936;52.086;5.150;2022-12-26T05:55:12;6.10;;;2.72;;
36725;SDS011;44936;52.086;5.150;2022-12-26T05:57:37;7.93;;;2.63;;
36725;SDS011;44936;52.086;5.150;2022-12-26T06:00:03;5.95;;;2.40;;
36725;SDS011;44936;52.086;5.150;2022-12-26T06:02:30;7.72;;;2.60;;
36725;SDS011;44936;52.086;5.150;2022-12-26T06:04:55;6.05;;;2.60;;
36725;SDS011;44936;52.086;5.150;2022-12-26T06:07:21;4.57;;;2.03;;
36725;SDS011;44936;52.086;5.150;2022-12-26T06:09:47;5.00;;;2.25;;
36725;SDS011;44936;52.086;5.150;2022-12-26T06:12:12;5.78;;;2.33;;
36725;SDS011;44936;52.086;5.150;2022-12-26T06:14:38;4.72;;;1.90;;
36725;SDS011;44936;52.086;5.150;2022-12-26T06:17:04;4.38;;;1.85;;
36725;SDS011;44936;52.086;5.150;2022-12-26T06:19:30;4.38;;;1.75;;
36725;SDS011;44936;52.086;5.150;2022-12-26T06:21:55;4.32;;;1.98;;
36725;SDS011;44936;52.086;5.150;2022-12-26T06:24:21;4.85;;;1.75;;
36725;SDS011;44936;52.086;5.150;2022-12-26T06:26:49;4.43;;;1.90;;
36725;SDS011;44936;52.086;5.150;2022-12-26T06:29:15;3.55;;;1.73;;
36725;SDS011;44936;52.086;5.150;2022-12-26T06:31:40;3.53;;;1.58;;
36725;SDS011;44936;52.086;5.150;2022-12-26T06:34:08;4.32;;;1.83;;
36725;SDS011;44936;52.086;5.150;2022-12-26T06:36:35;4.13;;;1.70;;
36725;SDS011;44936;52.086;5.150;2022-12-26T06:39:01;4.50;;;1.65;;
36725;SDS011;44936;52.086;5.150;2022-12-26T06:41:26;3.25;;;1.48;;
36725;SDS011;44936;52.086;5.150;2022-12-26T06:43:51;7.72;;;1.85;;
36725;SDS011;44936;52.086;5.150;2022-12-26T06:46:20;2.65;;;1.35;;
36725;SDS011;44936;52.086;5.150;2022-12-26T06:48:47;3.17;;;1.52;;
36725;SDS011;44936;52.086;5.150;2022-12-26T06:51:14;3.65;;;1.80;;
36725;SDS011;44936;52.086;5.150;2022-12-26T06:53:41;3.10;;;1.55;;
36725;SDS011;44936;52.086;5.150;2022-12-26T06:56:11;3.90;;;2.10;;
36725;SDS011;44936;52.086;5.150;2022-12-26T06:58:38;2.78;;;1.52;;
36725;SDS011;44936;52.086;5.150;2022-12-26T07:01:06;5.13;;;2.20;;
36725;SDS011;44936;52.086;5.150;2022-12-26T07:03:42;4.75;;;1.60;;
36725;SDS011;44936;52.086;5.150;2022-12-26T07:06:15;4.82;;;1.75;;
36725;SDS011;44936;52.086;5.150;2022-12-26T07:08:43;2.95;;;1.55;;
36725;SDS011;44936;52.086;5.150;2022-12-26T07:11:15;4.22;;;1.50;;
36725;SDS011;44936;52.086;5.150;2022-12-26T07:13:44;6.38;;;1.70;;
36725;SDS011;44936;52.086;5.150;2022-12-26T07:16:09;2.83;;;1.30;;
36725;SDS011;44936;52.086;5.150;2022-12-26T07:18:35;4.07;;;1.80;;
36725;SDS011;44936;52.086;5.150;2022-12-26T07:21:06;4.00;;;1.42;;
36725;SDS011;44936;52.086;5.150;2022-12-26T07:23:33;3.80;;;1.55;;
36725;SDS011;44936;52.086;5.150;2022-12-26T07:25:58;2.88;;;1.58;;
36725;SDS011;44936;52.086;5.150;2022-12-26T07:28:25;5.45;;;1.65;;
36725;SDS011;44936;52.086;5.150;2022-12-26T07:30:51;4.00;;;1.63;;
36725;SDS011;44936;52.086;5.150;2022-12-26T07:33:17;2.03;;;1.00;;
36725;SDS011;44936;52.086;5.150;2022-12-26T07:35:42;4.13;;;1.25;;
36725;SDS011;44936;52.086;5.150;2022-12-26T07:38:09;2.83;;;1.17;;
36725;SDS011;44936;52.086;5.150;2022-12-26T07:40:35;1.77;;;1.00;;
36725;SDS011;44936;52.086;5.150;2022-12-26T07:43:00;2.20;;;1.30;;
36725;SDS011;44936;52.086;5.150;2022-12-26T07:45:26;1.50;;;1.00;;
36725;SDS011;44936;52.086;5.150;2022-12-26T07:47:52;3.80;;;1.27;;
36725;SDS011;44936;52.086;5.150;2022-12-26T07:50:19;4.00;;;1.25;;
36725;SDS011;44936;52.086;5.150;2022-12-26T07:52:44;2.58;;;1.10;;
36725;SDS011;44936;52.086;5.150;2022-12-26T07:55:10;3.88;;;1.10;;
36725;SDS011;44936;52.086;5.150;2022-12-26T07:57:37;3.20;;;1.35;;
36725;SDS011;44936;52.086;5.150;2022-12-26T08:00:02;2.58;;;1.00;;
36725;SDS011;44936;52.086;5.150;2022-12-26T08:02:31;4.20;;;2.00;;
36725;SDS011;44936;52.086;5.150;2022-12-26T08:04:58;3.03;;;1.30;;
36725;SDS011;44936;52.086;5.150;2022-12-26T08:07:23;1.33;;;1.10;;
36725;SDS011;44936;52.086;5.150;2022-12-26T08:09:55;3.90;;;1.05;;
36725;SDS011;44936;52.086;5.150;2022-12-26T08:12:20;3.28;;;1.00;;
36725;SDS011;44936;52.086;5.150;2022-12-26T08:14:48;4.53;;;1.00;;
36725;SDS011;44936;52.086;5.150;2022-12-26T08:17:15;3.05;;;1.13;;
36725;SDS011;44936;52.086;5.150;2022-12-26T08:19:41;1.50;;;1.10;;
36725;SDS011;44936;52.086;5.150;2022-12-26T08:22:09;2.08;;;1.20;;
36725;SDS011;44936;52.086;5.150;2022-12-26T08:24:34;4.47;;;1.15;;
36725;SDS011;44936;52.086;5.150;2022-12-26T08:27:00;5.75;;;1.20;;
36725;SDS011;44936;52.086;5.150;2022-12-26T08:29:25;3.80;;;1.83;;
36725;SDS011;44936;52.086;5.150;2022-12-26T08:31:54;5.90;;;1.20;;
36725;SDS011;44936;52.086;5.150;2022-12-26T08:34:19;3.72;;;1.42;;
36725;SDS011;44936;52.086;5.150;2022-12-26T08:36:44;1.85;;;1.30;;
36725;SDS011;44936;52.086;5.150;2022-12-26T08:39:10;1.35;;;1.00;;
36725;SDS011;44936;52.086;5.150;2022-12-26T08:44:49;1.35;;;1.25;;
36725;SDS011;44936;52.086;5.150;2022-12-26T08:47:14;3.25;;;1.40;;
36725;SDS011;44936;52.086;5.150;2022-12-26T08:49:50;1.77;;;1.10;;
36725;SDS011;44936;52.086;5.150;2022-12-26T08:52:17;4.60;;;1.30;;
36725;SDS011;44936;52.086;5.150;2022-12-26T08:54:44;4.60;;;1.70;;
36725;SDS011;44936;52.086;5.150;2022-12-26T08:57:12;4.68;;;1.30;;
36725;SDS011;44936;52.086;5.150;2022-12-26T08:59:37;4.50;;;1.33;;
36725;SDS011;44936;52.086;5.150;2022-12-26T09:02:05;2.25;;;1.27;;
36725;SDS011;44936;52.086;5.150;2022-12-26T09:07:47;1.40;;;1.10;;
36725;SDS011;44936;52.086;5.150;2022-12-26T09:10:14;2.60;;;1.13;;
36725;SDS011;44936;52.086;5.150;2022-12-26T09:12:41;3.65;;;1.17;;
36725;SDS011;44936;52.086;5.150;2022-12-26T09:21:27;3.95;;;1.60;;
36725;SDS011;44936;52.086;5.150;2022-12-26T09:27:19;2.00;;;1.02;;
36725;SDS011;44936;52.086;5.150;2022-12-26T09:29:56;3.03;;;0.93;;
36725;SDS011;44936;52.086;5.150;2022-12-26T09:32:22;2.85;;;1.20;;
36725;SDS011;44936;52.086;5.150;2022-12-26T09:34:48;2.13;;;0.95;;
36725;SDS011;44936;52.086;5.150;2022-12-26T09:37:27;1.08;;;0.50;;
36725;SDS011;44936;52.086;5.150;2022-12-26T09:40:09;3.22;;;0.80;;
36725;SDS011;44936;52.086;5.150;2022-12-26T09:45:55;2.47;;;0.70;;
36725;SDS011;44936;52.086;5.150;2022-12-26T09:48:33;10.27;;;0.88;;
36725;SDS011;44936;52.086;5.150;2022-12-26T10:14:37;1.65;;;0.45;;
36725;SDS011;44936;52.086;5.150;2022-12-26T10:25:16;10.52;;;0.70;;
36725;SDS011;44936;52.086;5.150;2022-12-26T10:27:47;1.17;;;0.60;;
36725;SDS011;44936;52.086;5.150;2022-12-26T10:30:19;2.63;;;0.90;;
36725;SDS011;44936;52.086;5.150;2022-12-26T10:32:49;1.35;;;0.85;;
36725;SDS011;44936;52.086;5.150;2022-12-26T10:35:29;4.25;;;0.60;;
36725;SDS011;44936;52.086;5.150;2022-12-26T10:40:41;6.13;;;0.77;;
36725;SDS011;44936;52.086;5.150;2022-12-26T10:43:21;4.93;;;1.45;;
36725;SDS011;44936;52.086;5.150;2022-12-26T10:48:46;0.43;;;0.30;;
36725;SDS011;44936;52.086;5.150;2022-12-26T10:51:12;5.05;;;0.30;;
36725;SDS011;44936;52.086;5.150;2022-12-26T10:53:40;3.28;;;0.60;;
36725;SDS011;44936;52.086;5.150;2022-12-26T10:56:15;1.17;;;0.43;;
36725;SDS011;44936;52.086;5.150;2022-12-26T10:58:41;5.28;;;0.50;;
36725;SDS011;44936;52.086;5.150;2022-12-26T11:03:58;3.70;;;0.38;;
36725;SDS011;44936;52.086;5.150;2022-12-26T11:06:26;6.85;;;0.63;;
36725;SDS011;44936;52.086;5.150;2022-12-26T11:08:56;0.60;;;0.13;;
36725;SDS011;44936;52.086;5.150;2022-12-26T11:11:29;1.83;;;0.10;;
36725;SDS011;44936;52.086;5.150;2022-12-26T11:14:33;2.50;;;0.50;;
36725;SDS011;44936;52.086;5.150;2022-12-26T11:17:08;3.25;;;0.30;;
36725;SDS011;44936;52.086;5.150;2022-12-26T11:19:39;1.13;;;0.40;;
36725;SDS011;44936;52.086;5.150;2022-12-26T11:22:29;2.70;;;0.25;;
36725;SDS011;44936;52.086;5.150;2022-12-26T11:27:39;0.00;;;0.00;;
36725;SDS011;44936;52.086;5.150;2022-12-26T11:30:14;1.10;;;0.20;;
36725;SDS011;44936;52.086;5.150;2022-12-26T11:32:42;2.58;;;0.70;;
36725;SDS011;44936;52.086;5.150;2022-12-26T11:37:43;1.92;;;0.20;;
36725;SDS011;44936;52.086;5.150;2022-12-26T11:40:24;1.85;;;0.28;;
36725;SDS011;44936;52.086;5.150;2022-12-26T11:43:01;4.88;;;0.50;;
36725;SDS011;44936;52.086;5.150;2022-12-26T11:45:37;0.40;;;0.20;;
36725;SDS011;44936;52.086;5.150;2022-12-26T11:48:23;2.63;;;0.35;;
36725;SDS011;44936;52.086;5.150;2022-12-26T11:50:50;1.88;;;0.32;;
36725;SDS011;44936;52.086;5.150;2022-12-26T11:53:18;0.95;;;0.20;;
36725;SDS011;44936;52.086;5.150;2022-12-26T11:56:05;1.00;;;0.38;;
36725;SDS011;44936;52.086;5.150;2022-12-26T11:58:35;4.03;;;0.40;;
36725;SDS011;44936;52.086;5.150;2022-12-26T12:01:02;0.73;;;0.20;;
36725;SDS011;44936;52.086;5.150;2022-12-26T12:03:41;0.85;;;0.30;;
36725;SDS011;44936;52.086;5.150;2022-12-26T12:06:22;2.13;;;0.32;;
36725;SDS011;44936;52.086;5.150;2022-12-26T12:08:55;4.55;;;0.50;;
36725;SDS011;44936;52.086;5.150;2022-12-26T12:12:13;2.20;;;0.60;;
36725;SDS011;44936;52.086;5.150;2022-12-26T12:20:11;5.80;;;0.70;;
36725;SDS011;44936;52.086;5.150;2022-12-26T12:25:42;4.13;;;0.30;;
36725;SDS011;44936;52.086;5.150;2022-12-26T12:28:39;5.60;;;0.50;;
36725;SDS011;44936;52.086;5.150;2022-12-26T12:42:44;4.10;;;0.63;;
36725;SDS011;44936;52.086;5.150;2022-12-26T12:45:33;1.10;;;0.30;;
36725;SDS011;44936;52.086;5.150;2022-12-26T12:48:09;7.53;;;0.40;;
36725;SDS011;44936;52.086;5.150;2022-12-26T12:56:45;0.23;;;0.23;;
36725;SDS011;44936;52.086;5.150;2022-12-26T13:01:58;1.65;;;0.40;;
36725;SDS011;44936;52.086;5.150;2022-12-26T13:04:37;1.77;;;0.40;;
36725;SDS011;44936;52.086;5.150;2022-12-26T13:07:09;0.82;;;0.40;;
36725;SDS011;44936;52.086;5.150;2022-12-26T13:09:48;1.92;;;0.63;;
36725;SDS011;44936;52.086;5.150;2022-12-26T13:12:21;3.72;;;0.60;;
36725;SDS011;44936;52.086;5.150;2022-12-26T13:14:51;3.22;;;0.40;;
36725;SDS011;44936;52.086;5.150;2022-12-26T13:17:22;1.23;;;0.40;;
36725;SDS011;44936;52.086;5.150;2022-12-26T13:22:32;2.58;;;0.63;;
36725;SDS011;44936;52.086;5.150;2022-12-26T13:25:27;3.35;;;0.65;;
36725;SDS011;44936;52.086;5.150;2022-12-26T13:27:59;2.65;;;0.50;;
36725;SDS011;44936;52.086;5.150;2022-12-26T13:30:33;5.82;;;0.60;;
36725;SDS011;44936;52.086;5.150;2022-12-26T13:33:03;6.88;;;0.95;;
36725;SDS011;44936;52.086;5.150;2022-12-26T13:35:48;4.10;;;0.75;;
36725;SDS011;44936;52.086;5.150;2022-12-26T13:38:22;4.43;;;0.45;;
36725;SDS011;44936;52.086;5.150;2022-12-26T13:40:57;2.05;;;0.70;;
36725;SDS011;44936;52.086;5.150;2022-12-26T13:44:04;5.57;;;0.80;;
36725;SDS011;44936;52.086;5.150;2022-12-26T13:54:36;4.35;;;0.60;;
36725;SDS011;44936;52.086;5.150;2022-12-26T13:57:25;2.45;;;0.88;;
36725;SDS011;44936;52.086;5.150;2022-12-26T14:05:43;3.38;;;0.50;;
36725;SDS011;44936;52.086;5.150;2022-12-26T14:11:16;2.03;;;0.63;;
36725;SDS011;44936;52.086;5.150;2022-12-26T14:16:24;9.32;;;0.82;;
36725;SDS011;44936;52.086;5.150;2022-12-26T14:21:52;1.88;;;0.43;;
36725;SDS011;44936;52.086;5.150;2022-12-26T14:29:45;0.82;;;0.60;;
36725;SDS011;44936;52.086;5.150;2022-12-26T14:35:22;3.33;;;0.40;;
36725;SDS011;44936;52.086;5.150;2022-12-26T14:41:03;1.27;;;0.45;;
36725;SDS011;44936;52.086;5.150;2022-12-26T14:43:37;1.85;;;0.20;;
36725;SDS011;44936;52.086;5.150;2022-12-26T14:49:00;4.95;;;0.40;;
36725;SDS011;44936;52.086;5.150;2022-12-26T14:52:48;4.22;;;0.60;;
36725;SDS011;44936;52.086;5.150;2022-12-26T14:54:48;5.15;;;0.50;;
36725;SDS011;44936;52.086;5.150;2022-12-26T15:02:51;5.07;;;0.45;;
36725;SDS011;44936;52.086;5.150;2022-12-26T15:05:43;2.38;;;0.40;;
36725;SDS011;44936;52.086;5.150;2022-12-26T15:11:47;2.78;;;0.30;;
36725;SDS011;44936;52.086;5.150;2022-12-26T15:22:21;6.55;;;0.73;;
36725;SDS011;44936;52.086;5.150;2022-12-26T15:41:38;8.63;;;0.68;;
36725;SDS011;44936;52.086;5.150;2022-12-26T15:46:54;2.55;;;0.50;;
36725;SDS011;44936;52.086;5.150;2022-12-26T15:52:00;1.42;;;0.45;;
36725;SDS011;44936;52.086;5.150;2022-12-26T16:00:22;4.90;;;0.70;;
36725;SDS011;44936;52.086;5.150;2022-12-26T16:03:00;3.97;;;0.90;;
36725;SDS011;44936;52.086;5.150;2022-12-26T16:08:26;5.03;;;0.70;;
36725;SDS011;44936;52.086;5.150;2022-12-26T16:11:11;2.97;;;0.80;;
36725;SDS011;44936;52.086;5.150;2022-12-26T16:13:58;3.53;;;0.98;;
36725;SDS011;44936;52.086;5.150;2022-12-26T16:16:35;3.85;;;0.90;;
36725;SDS011;44936;52.086;5.150;2022-12-26T16:19:18;4.75;;;0.60;;
36725;SDS011;44936;52.086;5.150;2022-12-26T16:21:52;2.80;;;1.15;;
36725;SDS011;44936;52.086;5.150;2022-12-26T16:24:42;1.77;;;0.90;;
36725;SDS011;44936;52.086;5.150;2022-12-26T16:27:08;1.60;;;0.70;;
36725;SDS011;44936;52.086;5.150;2022-12-26T16:29:56;1.65;;;1.10;;
36725;SDS011;44936;52.086;5.150;2022-12-26T16:32:37;2.92;;;0.80;;
36725;SDS011;44936;52.086;5.150;2022-12-26T16:35:06;2.65;;;0.90;;
36725;SDS011;44936;52.086;5.150;2022-12-26T16:43:21;3.58;;;0.90;;
36725;SDS011;44936;52.086;5.150;2022-12-26T16:45:53;2.42;;;0.60;;
36725;SDS011;44936;52.086;5.150;2022-12-26T16:48:27;3.75;;;0.80;;
36725;SDS011;44936;52.086;5.150;2022-12-26T16:50:58;1.77;;;0.70;;
36725;SDS011;44936;52.086;5.150;2022-12-26T16:59:12;3.53;;;0.73;;
36725;SDS011;44936;52.086;5.150;2022-12-26T17:01:51;3.60;;;0.90;;
36725;SDS011;44936;52.086;5.150;2022-12-26T17:04:20;5.45;;;1.08;;
36725;SDS011;44936;52.086;5.150;2022-12-26T17:06:52;2.15;;;0.80;;
36725;SDS011;44936;52.086;5.150;2022-12-26T17:09:22;7.03;;;0.82;;
36725;SDS011;44936;52.086;5.150;2022-12-26T17:11:55;3.13;;;1.02;;
36725;SDS011;44936;52.086;5.150;2022-12-26T17:14:27;1.92;;;0.55;;
36725;SDS011;44936;52.086;5.150;2022-12-26T17:17:00;1.35;;;0.80;;
36725;SDS011;44936;52.086;5.150;2022-12-26T17:19:30;3.50;;;0.60;;
36725;SDS011;44936;52.086;5.150;2022-12-26T17:25:13;6.13;;;0.80;;
36725;SDS011;44936;52.086;5.150;2022-12-26T17:27:38;5.70;;;1.00;;
36725;SDS011;44936;52.086;5.150;2022-12-26T17:30:26;5.18;;;1.25;;
36725;SDS011;44936;52.086;5.150;2022-12-26T17:33:41;2.17;;;0.70;;
36725;SDS011;44936;52.086;5.150;2022-12-26T17:35:45;2.63;;;0.50;;
36725;SDS011;44936;52.086;5.150;2022-12-26T17:38:18;1.95;;;0.82;;
36725;SDS011;44936;52.086;5.150;2022-12-26T17:40:46;4.15;;;1.00;;
36725;SDS011;44936;52.086;5.150;2022-12-26T17:45:39;5.00;;;0.80;;
36725;SDS011;44936;52.086;5.150;2022-12-26T17:48:06;3.22;;;0.93;;
36725;SDS011;44936;52.086;5.150;2022-12-26T17:50:35;3.28;;;0.70;;
36725;SDS011;44936;52.086;5.150;2022-12-26T17:53:04;5.63;;;1.02;;
36725;SDS011;44936;52.086;5.150;2022-12-26T17:55:31;3.80;;;1.00;;
36725;SDS011;44936;52.086;5.150;2022-12-26T17:57:57;7.07;;;1.23;;
36725;SDS011;44936;52.086;5.150;2022-12-26T18:00:23;5.63;;;1.38;;
36725;SDS011;44936;52.086;5.150;2022-12-26T18:02:51;1.27;;;0.98;;
36725;SDS011;44936;52.086;5.150;2022-12-26T18:05:19;5.10;;;1.30;;
36725;SDS011;44936;52.086;5.150;2022-12-26T18:07:46;3.85;;;1.13;;
36725;SDS011;44936;52.086;5.150;2022-12-26T18:10:21;4.40;;;0.98;;
36725;SDS011;44936;52.086;5.150;2022-12-26T18:12:53;4.55;;;1.13;;
36725;SDS011;44936;52.086;5.150;2022-12-26T18:15:25;4.32;;;0.93;;
36725;SDS011;44936;52.086;5.150;2022-12-26T18:17:52;4.45;;;1.02;;
36725;SDS011;44936;52.086;5.150;2022-12-26T18:20:20;1.75;;;1.20;;
36725;SDS011;44936;52.086;5.150;2022-12-26T18:22:49;3.83;;;0.70;;
36725;SDS011;44936;52.086;5.150;2022-12-26T18:25:18;1.30;;;0.93;;
36725;SDS011;44936;52.086;5.150;2022-12-26T18:27:45;7.93;;;1.30;;
36725;SDS011;44936;52.086;5.150;2022-12-26T18:30:15;3.10;;;0.90;;
36725;SDS011;44936;52.086;5.150;2022-12-26T18:32:44;9.95;;;2.00;;
36725;SDS011;44936;52.086;5.150;2022-12-26T18:35:14;1.85;;;1.13;;
36725;SDS011;44936;52.086;5.150;2022-12-26T18:37:40;2.03;;;1.02;;
36725;SDS011;44936;52.086;5.150;2022-12-26T18:42:53;6.03;;;1.25;;
36725;SDS011;44936;52.086;5.150;2022-12-26T18:45:20;4.93;;;1.13;;
36725;SDS011;44936;52.086;5.150;2022-12-26T18:47:47;6.20;;;1.45;;
36725;SDS011;44936;52.086;5.150;2022-12-26T18:50:13;5.38;;;1.08;;
36725;SDS011;44936;52.086;5.150;2022-12-26T18:52:40;1.65;;;1.00;;
36725;SDS011;44936;52.086;5.150;2022-12-26T18:55:06;6.45;;;0.90;;
36725;SDS011;44936;52.086;5.150;2022-12-26T18:57:33;3.15;;;0.77;;
36725;SDS011;44936;52.086;5.150;2022-12-26T19:00:04;4.88;;;1.00;;
36725;SDS011;44936;52.086;5.150;2022-12-26T19:02:31;2.30;;;1.15;;
36725;SDS011;44936;52.086;5.150;2022-12-26T19:04:56;3.47;;;1.05;;
36725;SDS011;44936;52.086;5.150;2022-12-26T19:07:22;3.67;;;1.10;;
36725;SDS011;44936;52.086;5.150;2022-12-26T19:09:48;4.65;;;1.42;;
36725;SDS011;44936;52.086;5.150;2022-12-26T19:12:18;5.35;;;1.63;;
36725;SDS011;44936;52.086;5.150;2022-12-26T19:14:44;1.38;;;1.08;;
36725;SDS011;44936;52.086;5.150;2022-12-26T19:17:10;4.45;;;1.00;;
36725;SDS011;44936;52.086;5.150;2022-12-26T19:19:36;3.60;;;1.10;;
36725;SDS011;44936;52.086;5.150;2022-12-26T19:22:01;2.65;;;0.90;;
36725;SDS011;44936;52.086;5.150;2022-12-26T19:24:27;3.90;;;1.35;;
36725;SDS011;44936;52.086;5.150;2022-12-26T19:26:52;5.45;;;1.40;;
36725;SDS011;44936;52.086;5.150;2022-12-26T19:29:18;5.63;;;1.30;;
36725;SDS011;44936;52.086;5.150;2022-12-26T19:31:45;6.72;;;1.35;;
36725;SDS011;44936;52.086;5.150;2022-12-26T19:34:10;7.82;;;1.50;;
36725;SDS011;44936;52.086;5.150;2022-12-26T19:36:37;7.20;;;1.17;;